sensor_id;sensor_type;location;lat;lon;timestamp;P1;durP1;ratioP1;P2;durP2;ratioP2
80211;SDS011;70434;37.956;23.722;2023-06-04T00:00:43;10.98;;;7.68;;
80211;SDS011;70434;37.956;23.722;2023-06-04T00:03:09;12.20;;;6.80;;
80211;SDS011;70434;37.956;23.722;2023-06-04T00:05:35;13.98;;;7.30;;
80211;SDS011;70434;37.956;23.722;2023-06-04T00:08:01;13.35;;;6.72;;
80211;SDS011;70434;37.956;23.722;2023-06-04T00:10:26;13.65;;;6.50;;
80211;SDS011;70434;37.956;23.722;2023-06-04T00:12:52;9.90;;;7.35;;
80211;SDS011;70434;37.956;23.722;2023-06-04T00:15:18;12.00;;;6.75;;
80211;SDS011;70434;37.956;23.722;2023-06-04T00:17:43;16.70;;;8.20;;
80211;SDS011;70434;37.956;23.722;2023-06-04T00:20:10;12.32;;;7.20;;
80211;SDS011;70434;37.956;23.722;2023-06-04T00:22:36;11.75;;;7.20;;
80211;SDS011;70434;37.956;23.722;2023-06-04T00:25:02;15.73;;;8.07;;
80211;SDS011;70434;37.956;23.722;2023-06-04T00:27:28;10.55;;;6.75;;
80211;SDS011;70434;37.956;23.722;2023-06-04T00:29:54;10.23;;;7.10;;
80211;SDS011;70434;37.956;23.722;2023-06-04T00:32:29;8.30;;;6.13;;
80211;SDS011;70434;37.956;23.722;2023-06-04T00:35:06;9.90;;;6.35;;
80211;SDS011;70434;37.956;23.722;2023-06-04T00:37:34;13.20;;;7.57;;
80211;SDS011;70434;37.956;23.722;2023-06-04T00:40:00;11.85;;;6.75;;
80211;SDS011;70434;37.956;23.722;2023-06-04T00:42:25;13.02;;;7.38;;
80211;SDS011;70434;37.956;23.722;2023-06-04T00:44:51;9.80;;;6.97;;
80211;SDS011;70434;37.956;23.722;2023-06-04T00:47:18;12.23;;;6.68;;
80211;SDS011;70434;37.956;23.722;2023-06-04T00:49:45;10.30;;;6.93;;
80211;SDS011;70434;37.956;23.722;2023-06-04T00:52:14;14.48;;;7.68;;
80211;SDS011;70434;37.956;23.722;2023-06-04T00:54:40;10.82;;;6.97;;
80211;SDS011;70434;37.956;23.722;2023-06-04T00:57:06;10.15;;;7.13;;
80211;SDS011;70434;37.956;23.722;2023-06-04T00:59:34;12.48;;;6.90;;
80211;SDS011;70434;37.956;23.722;2023-06-04T01:02:06;11.40;;;6.20;;
80211;SDS011;70434;37.956;23.722;2023-06-04T01:04:51;11.50;;;6.13;;
80211;SDS011;70434;37.956;23.722;2023-06-04T01:07:24;12.13;;;6.60;;
80211;SDS011;70434;37.956;23.722;2023-06-04T01:09:53;10.70;;;6.22;;
80211;SDS011;70434;37.956;23.722;2023-06-04T01:12:19;11.93;;;6.40;;
80211;SDS011;70434;37.956;23.722;2023-06-04T01:14:45;11.85;;;6.03;;
80211;SDS011;70434;37.956;23.722;2023-06-04T01:24:53;16.08;;;6.57;;
80211;SDS011;70434;37.956;23.722;2023-06-04T01:27:24;13.05;;;6.72;;
80211;SDS011;70434;37.956;23.722;2023-06-04T01:29:50;9.52;;;6.40;;
80211;SDS011;70434;37.956;23.722;2023-06-04T01:32:16;12.80;;;6.50;;
80211;SDS011;70434;37.956;23.722;2023-06-04T01:34:43;10.55;;;6.35;;
80211;SDS011;70434;37.956;23.722;2023-06-04T01:37:10;9.85;;;6.38;;
80211;SDS011;70434;37.956;23.722;2023-06-04T01:39:36;13.52;;;6.63;;
80211;SDS011;70434;37.956;23.722;2023-06-04T01:42:02;15.40;;;7.80;;
80211;SDS011;70434;37.956;23.722;2023-06-04T01:44:28;15.68;;;6.90;;
80211;SDS011;70434;37.956;23.722;2023-06-04T01:46:54;12.05;;;6.95;;
80211;SDS011;70434;37.956;23.722;2023-06-04T01:49:19;15.25;;;6.65;;
80211;SDS011;70434;37.956;23.722;2023-06-04T01:51:45;11.75;;;6.90;;
80211;SDS011;70434;37.956;23.722;2023-06-04T01:54:11;10.70;;;6.47;;
80211;SDS011;70434;37.956;23.722;2023-06-04T01:56:36;13.18;;;7.13;;
80211;SDS011;70434;37.956;23.722;2023-06-04T01:59:02;13.52;;;6.85;;
80211;SDS011;70434;37.956;23.722;2023-06-04T02:01:29;17.60;;;6.60;;
80211;SDS011;70434;37.956;23.722;2023-06-04T02:03:55;10.23;;;6.65;;
80211;SDS011;70434;37.956;23.722;2023-06-04T02:06:20;13.98;;;6.53;;
80211;SDS011;70434;37.956;23.722;2023-06-04T02:08:46;11.75;;;7.20;;
80211;SDS011;70434;37.956;23.722;2023-06-04T02:11:12;12.10;;;6.93;;
80211;SDS011;70434;37.956;23.722;2023-06-04T02:13:37;10.82;;;6.47;;
80211;SDS011;70434;37.956;23.722;2023-06-04T02:16:04;13.93;;;7.30;;
80211;SDS011;70434;37.956;23.722;2023-06-04T02:18:30;12.05;;;8.38;;
80211;SDS011;70434;37.956;23.722;2023-06-04T02:20:56;11.80;;;8.65;;
80211;SDS011;70434;37.956;23.722;2023-06-04T02:23:21;13.23;;;7.93;;
80211;SDS011;70434;37.956;23.722;2023-06-04T02:25:47;17.40;;;7.35;;
80211;SDS011;70434;37.956;23.722;2023-06-04T02:28:14;11.68;;;7.45;;
80211;SDS011;70434;37.956;23.722;2023-06-04T02:30:40;13.30;;;7.05;;
80211;SDS011;70434;37.956;23.722;2023-06-04T02:33:06;12.13;;;7.28;;
80211;SDS011;70434;37.956;23.722;2023-06-04T02:35:34;9.65;;;7.32;;
80211;SDS011;70434;37.956;23.722;2023-06-04T02:38:00;13.00;;;8.18;;
80211;SDS011;70434;37.956;23.722;2023-06-04T02:40:26;10.88;;;7.35;;
80211;SDS011;70434;37.956;23.722;2023-06-04T02:42:52;11.48;;;7.15;;
80211;SDS011;70434;37.956;23.722;2023-06-04T02:45:19;12.63;;;7.70;;
80211;SDS011;70434;37.956;23.722;2023-06-04T02:47:45;12.93;;;8.02;;
80211;SDS011;70434;37.956;23.722;2023-06-04T02:50:11;12.98;;;7.78;;
80211;SDS011;70434;37.956;23.722;2023-06-04T02:52:38;12.60;;;7.15;;
80211;SDS011;70434;37.956;23.722;2023-06-04T02:55:05;16.33;;;7.75;;
80211;SDS011;70434;37.956;23.722;2023-06-04T02:57:32;14.52;;;7.93;;
80211;SDS011;70434;37.956;23.722;2023-06-04T02:59:58;14.80;;;7.82;;
80211;SDS011;70434;37.956;23.722;2023-06-04T03:02:25;10.52;;;7.50;;
80211;SDS011;70434;37.956;23.722;2023-06-04T03:04:51;14.70;;;7.53;;
80211;SDS011;70434;37.956;23.722;2023-06-04T03:07:17;17.55;;;8.00;;
80211;SDS011;70434;37.956;23.722;2023-06-04T03:09:48;15.32;;;7.97;;
80211;SDS011;70434;37.956;23.722;2023-06-04T03:12:14;10.52;;;6.13;;
80211;SDS011;70434;37.956;23.722;2023-06-04T03:14:39;8.30;;;6.00;;
80211;SDS011;70434;37.956;23.722;2023-06-04T03:17:05;11.15;;;6.00;;
80211;SDS011;70434;37.956;23.722;2023-06-04T03:19:38;11.27;;;5.73;;
80211;SDS011;70434;37.956;23.722;2023-06-04T03:22:06;9.18;;;5.57;;
80211;SDS011;70434;37.956;23.722;2023-06-04T03:24:36;11.02;;;6.10;;
80211;SDS011;70434;37.956;23.722;2023-06-04T03:27:04;10.25;;;5.88;;
80211;SDS011;70434;37.956;23.722;2023-06-04T03:29:31;11.80;;;5.85;;
80211;SDS011;70434;37.956;23.722;2023-06-04T03:31:57;10.30;;;5.90;;
80211;SDS011;70434;37.956;23.722;2023-06-04T03:34:23;10.45;;;5.95;;
80211;SDS011;70434;37.956;23.722;2023-06-04T03:36:55;11.55;;;5.88;;
80211;SDS011;70434;37.956;23.722;2023-06-04T03:39:21;11.90;;;6.30;;
80211;SDS011;70434;37.956;23.722;2023-06-04T03:41:47;10.02;;;5.88;;
80211;SDS011;70434;37.956;23.722;2023-06-04T03:44:14;15.15;;;5.57;;
80211;SDS011;70434;37.956;23.722;2023-06-04T03:46:43;13.63;;;5.80;;
80211;SDS011;70434;37.956;23.722;2023-06-04T03:49:09;13.27;;;5.63;;
80211;SDS011;70434;37.956;23.722;2023-06-04T03:51:39;10.05;;;5.30;;
80211;SDS011;70434;37.956;23.722;2023-06-04T03:54:06;12.65;;;5.63;;
80211;SDS011;70434;37.956;23.722;2023-06-04T03:56:32;8.95;;;5.18;;
80211;SDS011;70434;37.956;23.722;2023-06-04T03:58:58;13.60;;;5.75;;
80211;SDS011;70434;37.956;23.722;2023-06-04T04:01:24;12.00;;;5.30;;
80211;SDS011;70434;37.956;23.722;2023-06-04T04:03:50;9.68;;;5.85;;
80211;SDS011;70434;37.956;23.722;2023-06-04T04:06:17;8.55;;;5.00;;
80211;SDS011;70434;37.956;23.722;2023-06-04T04:08:43;8.30;;;5.50;;
80211;SDS011;70434;37.956;23.722;2023-06-04T04:11:12;10.40;;;5.80;;
80211;SDS011;70434;37.956;23.722;2023-06-04T04:13:39;11.40;;;6.40;;
80211;SDS011;70434;37.956;23.722;2023-06-04T04:16:05;12.38;;;6.43;;
80211;SDS011;70434;37.956;23.722;2023-06-04T04:18:34;13.48;;;6.20;;
80211;SDS011;70434;37.956;23.722;2023-06-04T04:21:00;10.30;;;5.95;;
80211;SDS011;70434;37.956;23.722;2023-06-04T04:23:26;10.77;;;6.10;;
80211;SDS011;70434;37.956;23.722;2023-06-04T04:25:53;10.05;;;6.32;;
80211;SDS011;70434;37.956;23.722;2023-06-04T04:28:19;13.73;;;8.05;;
80211;SDS011;70434;37.956;23.722;2023-06-04T04:30:45;18.42;;;8.30;;
80211;SDS011;70434;37.956;23.722;2023-06-04T04:33:12;13.20;;;7.68;;
80211;SDS011;70434;37.956;23.722;2023-06-04T04:35:40;16.20;;;8.55;;
80211;SDS011;70434;37.956;23.722;2023-06-04T04:38:10;16.92;;;8.32;;
80211;SDS011;70434;37.956;23.722;2023-06-04T04:40:36;15.35;;;8.82;;
80211;SDS011;70434;37.956;23.722;2023-06-04T04:43:02;16.50;;;8.45;;
80211;SDS011;70434;37.956;23.722;2023-06-04T04:45:28;17.85;;;8.30;;
80211;SDS011;70434;37.956;23.722;2023-06-04T04:47:54;15.30;;;8.00;;
80211;SDS011;70434;37.956;23.722;2023-06-04T04:50:20;11.80;;;7.55;;
80211;SDS011;70434;37.956;23.722;2023-06-04T04:52:45;18.83;;;7.88;;
80211;SDS011;70434;37.956;23.722;2023-06-04T04:55:11;19.92;;;7.90;;
80211;SDS011;70434;37.956;23.722;2023-06-04T04:57:38;11.63;;;6.65;;
80211;SDS011;70434;37.956;23.722;2023-06-04T05:00:04;14.15;;;7.32;;
80211;SDS011;70434;37.956;23.722;2023-06-04T05:02:32;10.20;;;6.80;;
80211;SDS011;70434;37.956;23.722;2023-06-04T05:04:59;12.38;;;7.65;;
80211;SDS011;70434;37.956;23.722;2023-06-04T05:07:25;11.50;;;7.78;;
80211;SDS011;70434;37.956;23.722;2023-06-04T05:09:51;10.93;;;7.03;;
80211;SDS011;70434;37.956;23.722;2023-06-04T05:12:16;12.63;;;8.13;;
80211;SDS011;70434;37.956;23.722;2023-06-04T05:14:42;14.35;;;7.35;;
80211;SDS011;70434;37.956;23.722;2023-06-04T05:17:08;10.85;;;7.05;;
80211;SDS011;70434;37.956;23.722;2023-06-04T05:19:35;17.83;;;7.22;;
80211;SDS011;70434;37.956;23.722;2023-06-04T05:22:02;15.50;;;6.65;;
80211;SDS011;70434;37.956;23.722;2023-06-04T05:24:28;15.77;;;7.03;;
80211;SDS011;70434;37.956;23.722;2023-06-04T05:26:56;14.93;;;6.82;;
80211;SDS011;70434;37.956;23.722;2023-06-04T05:29:22;11.30;;;6.05;;
80211;SDS011;70434;37.956;23.722;2023-06-04T05:31:48;9.98;;;6.55;;
80211;SDS011;70434;37.956;23.722;2023-06-04T05:34:15;10.82;;;5.82;;
80211;SDS011;70434;37.956;23.722;2023-06-04T05:36:44;11.82;;;5.65;;
80211;SDS011;70434;37.956;23.722;2023-06-04T05:39:10;7.85;;;5.82;;
80211;SDS011;70434;37.956;23.722;2023-06-04T05:41:36;10.65;;;5.63;;
80211;SDS011;70434;37.956;23.722;2023-06-04T05:44:02;9.60;;;6.07;;
80211;SDS011;70434;37.956;23.722;2023-06-04T05:46:28;10.45;;;5.38;;
80211;SDS011;70434;37.956;23.722;2023-06-04T05:48:54;9.90;;;5.80;;
80211;SDS011;70434;37.956;23.722;2023-06-04T05:51:20;8.85;;;5.13;;
80211;SDS011;70434;37.956;23.722;2023-06-04T05:53:46;11.32;;;5.22;;
80211;SDS011;70434;37.956;23.722;2023-06-04T05:56:12;8.82;;;5.60;;
80211;SDS011;70434;37.956;23.722;2023-06-04T05:58:38;9.52;;;5.32;;
80211;SDS011;70434;37.956;23.722;2023-06-04T06:01:04;9.90;;;5.18;;
80211;SDS011;70434;37.956;23.722;2023-06-04T06:03:30;10.05;;;5.15;;
80211;SDS011;70434;37.956;23.722;2023-06-04T06:05:56;9.48;;;5.75;;
80211;SDS011;70434;37.956;23.722;2023-06-04T06:08:23;11.23;;;6.05;;
80211;SDS011;70434;37.956;23.722;2023-06-04T06:10:49;14.75;;;6.55;;
80211;SDS011;70434;37.956;23.722;2023-06-04T06:13:15;10.52;;;6.53;;
80211;SDS011;70434;37.956;23.722;2023-06-04T06:15:41;8.40;;;5.90;;
80211;SDS011;70434;37.956;23.722;2023-06-04T06:18:07;10.23;;;5.50;;
80211;SDS011;70434;37.956;23.722;2023-06-04T06:20:33;12.63;;;5.63;;
80211;SDS011;70434;37.956;23.722;2023-06-04T06:23:05;8.75;;;4.60;;
80211;SDS011;70434;37.956;23.722;2023-06-04T06:27:57;13.88;;;6.25;;
80211;SDS011;70434;37.956;23.722;2023-06-04T06:30:23;17.05;;;12.25;;
80211;SDS011;70434;37.956;23.722;2023-06-04T06:32:48;9.55;;;6.05;;
80211;SDS011;70434;37.956;23.722;2023-06-04T06:35:15;11.65;;;6.10;;
80211;SDS011;70434;37.956;23.722;2023-06-04T06:37:41;9.68;;;6.03;;
80211;SDS011;70434;37.956;23.722;2023-06-04T06:40:09;12.65;;;6.35;;
80211;SDS011;70434;37.956;23.722;2023-06-04T06:42:35;12.82;;;6.25;;
80211;SDS011;70434;37.956;23.722;2023-06-04T06:45:01;16.00;;;6.90;;
80211;SDS011;70434;37.956;23.722;2023-06-04T06:47:26;10.98;;;5.53;;
80211;SDS011;70434;37.956;23.722;2023-06-04T06:49:52;12.27;;;6.75;;
80211;SDS011;70434;37.956;23.722;2023-06-04T06:52:18;15.90;;;9.55;;
80211;SDS011;70434;37.956;23.722;2023-06-04T06:54:45;19.67;;;9.98;;
80211;SDS011;70434;37.956;23.722;2023-06-04T06:57:11;9.90;;;5.75;;
80211;SDS011;70434;37.956;23.722;2023-06-04T06:59:37;14.70;;;5.50;;
80211;SDS011;70434;37.956;23.722;2023-06-04T07:02:03;10.30;;;6.22;;
80211;SDS011;70434;37.956;23.722;2023-06-04T07:04:30;10.32;;;5.50;;
80211;SDS011;70434;37.956;23.722;2023-06-04T07:06:56;12.13;;;5.18;;
80211;SDS011;70434;37.956;23.722;2023-06-04T07:09:21;8.20;;;4.97;;
80211;SDS011;70434;37.956;23.722;2023-06-04T07:11:47;10.20;;;5.68;;
80211;SDS011;70434;37.956;23.722;2023-06-04T07:14:13;8.90;;;5.30;;
80211;SDS011;70434;37.956;23.722;2023-06-04T07:16:39;9.55;;;5.03;;
80211;SDS011;70434;37.956;23.722;2023-06-04T07:19:05;9.63;;;5.40;;
80211;SDS011;70434;37.956;23.722;2023-06-04T07:21:30;9.23;;;5.65;;
80211;SDS011;70434;37.956;23.722;2023-06-04T07:23:56;9.60;;;5.50;;
80211;SDS011;70434;37.956;23.722;2023-06-04T07:26:22;10.63;;;5.75;;
80211;SDS011;70434;37.956;23.722;2023-06-04T07:28:50;10.38;;;6.07;;
80211;SDS011;70434;37.956;23.722;2023-06-04T07:31:16;12.18;;;6.68;;
80211;SDS011;70434;37.956;23.722;2023-06-04T07:33:42;12.48;;;7.35;;
80211;SDS011;70434;37.956;23.722;2023-06-04T07:36:14;17.05;;;7.53;;
80211;SDS011;70434;37.956;23.722;2023-06-04T07:41:06;13.32;;;7.43;;
80211;SDS011;70434;37.956;23.722;2023-06-04T07:43:33;10.73;;;7.45;;
80211;SDS011;70434;37.956;23.722;2023-06-04T07:46:00;11.48;;;7.28;;
80211;SDS011;70434;37.956;23.722;2023-06-04T07:48:27;11.82;;;7.70;;
80211;SDS011;70434;37.956;23.722;2023-06-04T07:50:58;10.18;;;6.60;;
80211;SDS011;70434;37.956;23.722;2023-06-04T07:53:25;12.90;;;6.88;;
80211;SDS011;70434;37.956;23.722;2023-06-04T07:55:51;9.43;;;6.63;;
80211;SDS011;70434;37.956;23.722;2023-06-04T07:58:18;16.52;;;6.80;;
80211;SDS011;70434;37.956;23.722;2023-06-04T08:00:43;13.07;;;6.82;;
80211;SDS011;70434;37.956;23.722;2023-06-04T08:03:09;12.05;;;7.13;;
80211;SDS011;70434;37.956;23.722;2023-06-04T08:05:35;12.05;;;7.28;;
80211;SDS011;70434;37.956;23.722;2023-06-04T08:08:01;15.85;;;7.70;;
80211;SDS011;70434;37.956;23.722;2023-06-04T08:10:28;16.35;;;7.15;;
80211;SDS011;70434;37.956;23.722;2023-06-04T08:12:54;11.73;;;6.60;;
80211;SDS011;70434;37.956;23.722;2023-06-04T08:15:20;10.95;;;6.43;;
80211;SDS011;70434;37.956;23.722;2023-06-04T08:17:46;11.82;;;7.15;;
80211;SDS011;70434;37.956;23.722;2023-06-04T08:20:12;9.10;;;6.47;;
80211;SDS011;70434;37.956;23.722;2023-06-04T08:22:38;13.43;;;6.82;;
80211;SDS011;70434;37.956;23.722;2023-06-04T08:25:04;12.52;;;7.03;;
80211;SDS011;70434;37.956;23.722;2023-06-04T08:27:30;9.65;;;6.47;;
80211;SDS011;70434;37.956;23.722;2023-06-04T08:29:56;14.95;;;6.63;;
80211;SDS011;70434;37.956;23.722;2023-06-04T08:32:23;10.80;;;6.80;;
80211;SDS011;70434;37.956;23.722;2023-06-04T08:34:50;12.23;;;7.30;;
80211;SDS011;70434;37.956;23.722;2023-06-04T08:37:16;14.55;;;7.15;;
80211;SDS011;70434;37.956;23.722;2023-06-04T08:39:42;11.48;;;6.47;;
80211;SDS011;70434;37.956;23.722;2023-06-04T08:42:09;18.13;;;9.73;;
80211;SDS011;70434;37.956;23.722;2023-06-04T08:47:08;35.72;;;23.60;;
80211;SDS011;70434;37.956;23.722;2023-06-04T08:49:37;22.23;;;15.25;;
80211;SDS011;70434;37.956;23.722;2023-06-04T08:52:08;14.10;;;8.88;;
80211;SDS011;70434;37.956;23.722;2023-06-04T08:54:33;12.00;;;8.57;;
80211;SDS011;70434;37.956;23.722;2023-06-04T08:57:00;14.52;;;7.53;;
80211;SDS011;70434;37.956;23.722;2023-06-04T08:59:25;14.05;;;9.27;;
80211;SDS011;70434;37.956;23.722;2023-06-04T09:01:53;17.85;;;9.02;;
80211;SDS011;70434;37.956;23.722;2023-06-04T09:04:19;13.90;;;8.90;;
80211;SDS011;70434;37.956;23.722;2023-06-04T09:06:45;12.63;;;8.57;;
80211;SDS011;70434;37.956;23.722;2023-06-04T09:09:12;9.80;;;7.90;;
80211;SDS011;70434;37.956;23.722;2023-06-04T09:14:21;12.82;;;7.45;;
80211;SDS011;70434;37.956;23.722;2023-06-04T09:16:47;15.07;;;8.10;;
80211;SDS011;70434;37.956;23.722;2023-06-04T09:19:13;18.65;;;8.73;;
80211;SDS011;70434;37.956;23.722;2023-06-04T09:22:13;11.63;;;7.20;;
80211;SDS011;70434;37.956;23.722;2023-06-04T09:24:41;12.15;;;7.35;;
80211;SDS011;70434;37.956;23.722;2023-06-04T09:27:15;11.23;;;7.22;;
80211;SDS011;70434;37.956;23.722;2023-06-04T09:29:49;11.40;;;7.45;;
80211;SDS011;70434;37.956;23.722;2023-06-04T09:32:26;11.10;;;6.82;;
80211;SDS011;70434;37.956;23.722;2023-06-04T09:34:53;15.73;;;7.60;;
80211;SDS011;70434;37.956;23.722;2023-06-04T09:37:20;12.18;;;7.00;;
80211;SDS011;70434;37.956;23.722;2023-06-04T09:39:52;17.42;;;10.63;;
80211;SDS011;70434;37.956;23.722;2023-06-04T09:42:20;14.10;;;9.65;;
80211;SDS011;70434;37.956;23.722;2023-06-04T09:44:46;13.20;;;8.95;;
80211;SDS011;70434;37.956;23.722;2023-06-04T09:47:12;13.23;;;8.32;;
80211;SDS011;70434;37.956;23.722;2023-06-04T09:49:41;12.27;;;7.25;;
80211;SDS011;70434;37.956;23.722;2023-06-04T09:52:07;12.93;;;7.15;;
80211;SDS011;70434;37.956;23.722;2023-06-04T09:54:35;10.52;;;6.90;;
80211;SDS011;70434;37.956;23.722;2023-06-04T09:57:22;12.73;;;6.80;;
80211;SDS011;70434;37.956;23.722;2023-06-04T09:59:49;9.82;;;6.10;;
80211;SDS011;70434;37.956;23.722;2023-06-04T10:02:19;11.30;;;6.72;;
80211;SDS011;70434;37.956;23.722;2023-06-04T10:04:49;12.13;;;7.38;;
80211;SDS011;70434;37.956;23.722;2023-06-04T10:07:22;14.32;;;9.23;;
80211;SDS011;70434;37.956;23.722;2023-06-04T10:09:49;14.05;;;8.32;;
80211;SDS011;70434;37.956;23.722;2023-06-04T10:12:17;11.60;;;8.25;;
80211;SDS011;70434;37.956;23.722;2023-06-04T10:14:52;12.00;;;7.65;;
80211;SDS011;70434;37.956;23.722;2023-06-04T10:17:24;14.68;;;8.10;;
80211;SDS011;70434;37.956;23.722;2023-06-04T10:19:52;13.43;;;7.57;;
80211;SDS011;70434;37.956;23.722;2023-06-04T10:22:19;17.23;;;8.68;;
80211;SDS011;70434;37.956;23.722;2023-06-04T10:24:48;12.02;;;7.00;;
80211;SDS011;70434;37.956;23.722;2023-06-04T10:27:14;15.23;;;7.35;;
80211;SDS011;70434;37.956;23.722;2023-06-04T10:29:42;10.25;;;7.47;;
80211;SDS011;70434;37.956;23.722;2023-06-04T10:32:08;13.32;;;7.72;;
80211;SDS011;70434;37.956;23.722;2023-06-04T10:34:34;11.07;;;6.65;;
80211;SDS011;70434;37.956;23.722;2023-06-04T10:37:01;14.18;;;8.43;;
80211;SDS011;70434;37.956;23.722;2023-06-04T10:42:03;9.50;;;6.95;;
80211;SDS011;70434;37.956;23.722;2023-06-04T10:44:30;14.60;;;7.45;;
80211;SDS011;70434;37.956;23.722;2023-06-04T10:46:57;10.02;;;7.15;;
80211;SDS011;70434;37.956;23.722;2023-06-04T10:49:30;13.77;;;8.90;;
80211;SDS011;70434;37.956;23.722;2023-06-04T10:52:09;13.70;;;7.85;;
80211;SDS011;70434;37.956;23.722;2023-06-04T10:54:35;12.05;;;6.95;;
80211;SDS011;70434;37.956;23.722;2023-06-04T10:57:09;11.68;;;7.45;;
80211;SDS011;70434;37.956;23.722;2023-06-04T10:59:54;13.65;;;8.13;;
80211;SDS011;70434;37.956;23.722;2023-06-04T11:02:24;14.90;;;7.38;;
80211;SDS011;70434;37.956;23.722;2023-06-04T11:05:00;11.45;;;7.53;;
80211;SDS011;70434;37.956;23.722;2023-06-04T11:07:41;11.80;;;7.50;;
80211;SDS011;70434;37.956;23.722;2023-06-04T11:10:11;13.80;;;7.70;;
80211;SDS011;70434;37.956;23.722;2023-06-04T11:12:55;13.93;;;8.98;;
80211;SDS011;70434;37.956;23.722;2023-06-04T11:15:21;10.52;;;7.50;;
80211;SDS011;70434;37.956;23.722;2023-06-04T11:17:50;10.35;;;7.93;;
80211;SDS011;70434;37.956;23.722;2023-06-04T11:20:21;11.18;;;7.47;;
80211;SDS011;70434;37.956;23.722;2023-06-04T11:22:51;14.88;;;8.05;;
80211;SDS011;70434;37.956;23.722;2023-06-04T11:25:22;13.45;;;7.55;;
80211;SDS011;70434;37.956;23.722;2023-06-04T11:27:51;13.32;;;8.15;;
80211;SDS011;70434;37.956;23.722;2023-06-04T11:30:18;12.05;;;7.88;;
80211;SDS011;70434;37.956;23.722;2023-06-04T11:32:45;14.95;;;8.30;;
80211;SDS011;70434;37.956;23.722;2023-06-04T11:35:11;15.50;;;8.90;;
80211;SDS011;70434;37.956;23.722;2023-06-04T11:37:37;14.13;;;9.75;;
80211;SDS011;70434;37.956;23.722;2023-06-04T11:40:16;12.65;;;8.45;;
80211;SDS011;70434;37.956;23.722;2023-06-04T11:42:44;11.38;;;7.97;;
80211;SDS011;70434;37.956;23.722;2023-06-04T11:45:14;12.15;;;8.88;;
80211;SDS011;70434;37.956;23.722;2023-06-04T11:47:44;19.83;;;8.60;;
80211;SDS011;70434;37.956;23.722;2023-06-04T11:50:14;13.40;;;8.90;;
80211;SDS011;70434;37.956;23.722;2023-06-04T11:52:40;14.60;;;8.60;;
80211;SDS011;70434;37.956;23.722;2023-06-04T11:55:10;12.85;;;9.05;;
80211;SDS011;70434;37.956;23.722;2023-06-04T11:57:37;19.48;;;8.80;;
80211;SDS011;70434;37.956;23.722;2023-06-04T12:00:04;15.73;;;8.90;;
80211;SDS011;70434;37.956;23.722;2023-06-04T12:02:35;13.65;;;9.65;;
80211;SDS011;70434;37.956;23.722;2023-06-04T12:05:11;16.25;;;9.23;;
80211;SDS011;70434;37.956;23.722;2023-06-04T12:07:38;15.95;;;10.00;;
80211;SDS011;70434;37.956;23.722;2023-06-04T12:10:07;11.75;;;8.70;;
80211;SDS011;70434;37.956;23.722;2023-06-04T12:12:39;17.27;;;10.25;;
80211;SDS011;70434;37.956;23.722;2023-06-04T12:15:06;16.33;;;10.43;;
80211;SDS011;70434;37.956;23.722;2023-06-04T12:17:32;14.63;;;10.10;;
80211;SDS011;70434;37.956;23.722;2023-06-04T12:19:58;23.23;;;15.15;;
80211;SDS011;70434;37.956;23.722;2023-06-04T12:22:24;19.63;;;14.25;;
80211;SDS011;70434;37.956;23.722;2023-06-04T12:24:55;23.50;;;15.65;;
80211;SDS011;70434;37.956;23.722;2023-06-04T12:27:25;43.58;;;26.20;;
80211;SDS011;70434;37.956;23.722;2023-06-04T12:30:01;20.13;;;10.57;;
80211;SDS011;70434;37.956;23.722;2023-06-04T12:32:29;26.13;;;18.77;;
80211;SDS011;70434;37.956;23.722;2023-06-04T12:34:55;32.08;;;20.88;;
80211;SDS011;70434;37.956;23.722;2023-06-04T12:37:22;21.88;;;11.05;;
80211;SDS011;70434;37.956;23.722;2023-06-04T12:39:50;22.05;;;15.57;;
80211;SDS011;70434;37.956;23.722;2023-06-04T12:42:16;19.45;;;11.68;;
80211;SDS011;70434;37.956;23.722;2023-06-04T12:44:44;19.90;;;13.32;;
80211;SDS011;70434;37.956;23.722;2023-06-04T12:47:10;36.25;;;27.33;;
80211;SDS011;70434;37.956;23.722;2023-06-04T12:49:36;31.75;;;21.13;;
80211;SDS011;70434;37.956;23.722;2023-06-04T12:52:03;16.67;;;11.80;;
80211;SDS011;70434;37.956;23.722;2023-06-04T12:54:29;13.52;;;9.40;;
80211;SDS011;70434;37.956;23.722;2023-06-04T12:56:55;21.33;;;12.00;;
80211;SDS011;70434;37.956;23.722;2023-06-04T12:59:25;19.45;;;12.68;;
80211;SDS011;70434;37.956;23.722;2023-06-04T13:01:52;50.70;;;33.45;;
80211;SDS011;70434;37.956;23.722;2023-06-04T13:04:18;35.67;;;22.23;;
80211;SDS011;70434;37.956;23.722;2023-06-04T13:06:44;21.40;;;13.95;;
80211;SDS011;70434;37.956;23.722;2023-06-04T13:09:13;22.73;;;15.98;;
80211;SDS011;70434;37.956;23.722;2023-06-04T13:11:40;27.63;;;17.27;;
80211;SDS011;70434;37.956;23.722;2023-06-04T13:14:09;26.35;;;15.40;;
80211;SDS011;70434;37.956;23.722;2023-06-04T13:16:35;14.75;;;11.75;;
80211;SDS011;70434;37.956;23.722;2023-06-04T13:19:03;13.52;;;10.43;;
80211;SDS011;70434;37.956;23.722;2023-06-04T13:21:29;18.00;;;9.45;;
80211;SDS011;70434;37.956;23.722;2023-06-04T13:23:55;15.30;;;10.50;;
80211;SDS011;70434;37.956;23.722;2023-06-04T13:26:21;15.27;;;10.38;;
80211;SDS011;70434;37.956;23.722;2023-06-04T13:28:47;16.42;;;10.27;;
80211;SDS011;70434;37.956;23.722;2023-06-04T13:31:13;12.45;;;6.75;;
80211;SDS011;70434;37.956;23.722;2023-06-04T13:33:39;10.15;;;7.18;;
80211;SDS011;70434;37.956;23.722;2023-06-04T13:36:06;12.07;;;7.03;;
80211;SDS011;70434;37.956;23.722;2023-06-04T13:38:32;9.75;;;6.15;;
80211;SDS011;70434;37.956;23.722;2023-06-04T13:40:58;10.13;;;5.57;;
80211;SDS011;70434;37.956;23.722;2023-06-04T13:43:24;9.55;;;5.05;;
80211;SDS011;70434;37.956;23.722;2023-06-04T13:45:50;14.38;;;5.78;;
80211;SDS011;70434;37.956;23.722;2023-06-04T13:48:16;10.48;;;5.75;;
80211;SDS011;70434;37.956;23.722;2023-06-04T13:50:42;8.77;;;5.30;;
80211;SDS011;70434;37.956;23.722;2023-06-04T13:53:08;8.00;;;5.28;;
80211;SDS011;70434;37.956;23.722;2023-06-04T13:55:34;11.85;;;5.15;;
80211;SDS011;70434;37.956;23.722;2023-06-04T13:58:00;8.57;;;4.68;;
80211;SDS011;70434;37.956;23.722;2023-06-04T14:00:26;7.75;;;4.80;;
80211;SDS011;70434;37.956;23.722;2023-06-04T14:02:52;6.60;;;4.75;;
80211;SDS011;70434;37.956;23.722;2023-06-04T14:05:20;9.45;;;5.10;;
80211;SDS011;70434;37.956;23.722;2023-06-04T14:07:46;10.45;;;5.25;;
80211;SDS011;70434;37.956;23.722;2023-06-04T14:10:12;10.57;;;6.30;;
80211;SDS011;70434;37.956;23.722;2023-06-04T14:12:38;11.52;;;8.07;;
80211;SDS011;70434;37.956;23.722;2023-06-04T14:15:06;8.68;;;4.45;;
80211;SDS011;70434;37.956;23.722;2023-06-04T14:17:33;7.93;;;4.47;;
80211;SDS011;70434;37.956;23.722;2023-06-04T14:20:00;7.78;;;4.18;;
80211;SDS011;70434;37.956;23.722;2023-06-04T14:22:26;7.13;;;4.43;;
80211;SDS011;70434;37.956;23.722;2023-06-04T14:24:52;6.07;;;4.10;;
80211;SDS011;70434;37.956;23.722;2023-06-04T14:27:17;7.88;;;4.57;;
80211;SDS011;70434;37.956;23.722;2023-06-04T14:29:43;7.97;;;4.63;;
80211;SDS011;70434;37.956;23.722;2023-06-04T14:32:09;8.75;;;4.55;;
80211;SDS011;70434;37.956;23.722;2023-06-04T14:34:34;9.02;;;4.10;;
80211;SDS011;70434;37.956;23.722;2023-06-04T14:37:00;8.52;;;4.25;;
80211;SDS011;70434;37.956;23.722;2023-06-04T14:39:27;6.35;;;4.70;;
80211;SDS011;70434;37.956;23.722;2023-06-04T14:41:53;8.77;;;4.55;;
80211;SDS011;70434;37.956;23.722;2023-06-04T14:44:19;5.53;;;3.63;;